createdAt,value
2018-12-19T00:01:30.385Z,-7.30
2018-12-19T00:03:59.639Z,-7.30
2018-12-19T00:06:28.715Z,-7.30
2018-12-19T00:09:03.032Z,-7.30
2018-12-19T00:11:28.820Z,-7.30
2018-12-19T00:13:57.908Z,-8.60
2018-12-19T00:16:26.982Z,-7.30
2018-12-19T00:18:56.030Z,-7.40
2018-12-19T00:21:25.067Z,-7.30
2018-12-19T00:23:54.198Z,-7.30
2018-12-19T00:26:23.249Z,-7.30
2018-12-19T00:28:52.357Z,-7.40
2018-12-19T00:31:21.403Z,-7.40
2018-12-19T00:33:50.464Z,-7.40
2018-12-19T00:36:19.563Z,-7.40
2018-12-19T00:38:48.656Z,-7.40
2018-12-19T00:41:17.723Z,-7.40
2018-12-19T00:43:46.874Z,-7.40
2018-12-19T00:46:15.921Z,-7.40
2018-12-19T00:48:44.992Z,-7.50
2018-12-19T00:51:14.133Z,-7.50
2018-12-19T00:53:43.369Z,-7.60
2018-12-19T00:56:12.513Z,-7.60
2018-12-19T00:58:41.560Z,-7.60
2018-12-19T01:01:10.669Z,-7.60
2018-12-19T01:03:39.762Z,-7.60
2018-12-19T01:06:08.863Z,-7.60
2018-12-19T01:08:37.974Z,-7.70
2018-12-19T01:11:07.013Z,-7.70
2018-12-19T01:13:36.375Z,-7.60
2018-12-19T01:16:05.524Z,-7.70
2018-12-19T01:18:35.028Z,-7.70
2018-12-19T01:21:04.167Z,-7.70
2018-12-19T01:23:33.217Z,-7.70
2018-12-19T01:26:02.274Z,-7.70
2018-12-19T01:28:31.374Z,-7.70
2018-12-19T01:31:00.628Z,-7.70
2018-12-19T01:33:29.701Z,-7.70
2018-12-19T01:35:58.895Z,-7.70
2018-12-19T01:38:27.943Z,-7.80
2018-12-19T01:40:57.017Z,-7.70
2018-12-19T01:43:26.086Z,-7.70
2018-12-19T01:45:55.272Z,-7.70
2018-12-19T01:48:24.341Z,-7.70
2018-12-19T01:50:53.397Z,-7.70
2018-12-19T01:53:22.474Z,-7.70
2018-12-19T01:55:51.607Z,-7.80
2018-12-19T01:58:20.677Z,-7.80
2018-12-19T02:00:49.721Z,-7.90
2018-12-19T02:03:18.841Z,-7.90
2018-12-19T02:05:47.946Z,-7.90
2018-12-19T02:08:17.063Z,-7.90
2018-12-19T02:10:46.135Z,-7.90
2018-12-19T02:13:15.201Z,-8.00
2018-12-19T02:15:44.281Z,-7.90
2018-12-19T02:18:13.346Z,-8.00
2018-12-19T02:20:42.395Z,-8.00
2018-12-19T02:23:11.470Z,-7.90
2018-12-19T02:25:40.611Z,-7.90
2018-12-19T02:28:09.677Z,-7.90
2018-12-19T02:30:38.785Z,-7.90
2018-12-19T02:33:07.853Z,-7.90
2018-12-19T02:35:36.974Z,-7.80
2018-12-19T02:38:06.030Z,-7.80
2018-12-19T02:40:35.140Z,-7.80
2018-12-19T02:43:04.324Z,-7.80
2018-12-19T02:45:33.547Z,-7.80
2018-12-19T02:48:02.623Z,-7.70
2018-12-19T02:50:31.666Z,-7.70
2018-12-19T02:53:00.750Z,-7.70
2018-12-19T02:55:29.866Z,-7.70
2018-12-19T02:57:58.911Z,-7.70
2018-12-19T03:00:27.996Z,-7.60
2018-12-19T03:02:57.037Z,-7.60
2018-12-19T03:05:26.161Z,-7.60
2018-12-19T03:07:55.181Z,-7.60
2018-12-19T03:10:24.304Z,-7.50
2018-12-19T03:12:53.387Z,-7.40
2018-12-19T03:15:22.419Z,-7.40
2018-12-19T03:17:51.559Z,-7.30
2018-12-19T03:20:20.610Z,-7.30
2018-12-19T03:22:49.680Z,-7.30
2018-12-19T03:25:19.097Z,-7.20
2018-12-19T03:27:48.133Z,-7.20
2018-12-19T03:30:17.208Z,-7.20
2018-12-19T03:32:46.265Z,-7.20
2018-12-19T03:35:15.336Z,-7.10
2018-12-19T03:37:44.411Z,-7.10
2018-12-19T03:40:13.488Z,-7.00
2018-12-19T03:42:42.558Z,-7.00
2018-12-19T03:45:11.686Z,-7.00
2018-12-19T03:47:40.737Z,-7.00
2018-12-19T03:50:09.804Z,-6.90
2018-12-19T03:52:38.849Z,-6.90
2018-12-19T03:55:07.922Z,-6.90
2018-12-19T03:57:37.278Z,-6.80
2018-12-19T04:00:07.511Z,-6.80
2018-12-19T04:02:36.910Z,-6.70
2018-12-19T04:05:06.054Z,-6.70
2018-12-19T04:07:35.109Z,-6.70
2018-12-19T04:10:05.560Z,-6.70
2018-12-19T04:12:34.619Z,-6.60
2018-12-19T04:15:04.137Z,-6.60
2018-12-19T04:17:33.189Z,-6.60
2018-12-19T04:20:02.274Z,-6.60
2018-12-19T04:22:31.378Z,-6.50
2018-12-19T04:25:00.450Z,-6.50
2018-12-19T04:27:29.536Z,-6.50
2018-12-19T04:29:58.938Z,-6.50
2018-12-19T04:32:28.375Z,-6.50
2018-12-19T04:34:57.450Z,-6.40
2018-12-19T04:37:26.527Z,-6.50
2018-12-19T04:39:55.575Z,-6.50
2018-12-19T04:42:24.733Z,-6.40
2018-12-19T04:44:53.832Z,-6.50
2018-12-19T04:47:23.011Z,-6.40
2018-12-19T04:49:52.080Z,-6.40
2018-12-19T04:52:21.203Z,-6.40
2018-12-19T04:54:50.407Z,-6.40
2018-12-19T04:57:19.505Z,-6.40
2018-12-19T04:59:48.587Z,-6.40
2018-12-19T05:02:17.614Z,-6.40
2018-12-19T05:04:46.682Z,-6.30
2018-12-19T05:07:15.864Z,-6.30
2018-12-19T05:09:44.954Z,-6.30
2018-12-19T05:12:14.001Z,-6.30
2018-12-19T05:14:43.510Z,-6.30
2018-12-19T05:17:12.558Z,-6.40
2018-12-19T05:19:42.217Z,-6.40
2018-12-19T05:22:11.267Z,-6.50
2018-12-19T05:24:40.340Z,-6.50
2018-12-19T05:27:09.495Z,-6.50
2018-12-19T05:29:38.914Z,-6.50
2018-12-19T05:32:08.007Z,-6.50
2018-12-19T05:34:37.083Z,-6.50
2018-12-19T05:37:06.183Z,-6.60
2018-12-19T05:39:35.262Z,-6.50
2018-12-19T05:42:04.302Z,-6.60
2018-12-19T05:44:33.488Z,-6.60
2018-12-19T05:47:02.519Z,-6.60
2018-12-19T05:49:31.582Z,-6.70
2018-12-19T05:52:00.676Z,-6.70
2018-12-19T05:54:29.872Z,-6.80
2018-12-19T05:56:58.960Z,-6.80
2018-12-19T05:59:28.010Z,-6.80
2018-12-19T06:01:57.333Z,-6.90
2018-12-19T06:04:26.428Z,-7.00
2018-12-19T06:06:55.498Z,-7.00
2018-12-19T06:09:24.582Z,-7.00
2018-12-19T06:11:53.752Z,-7.00
2018-12-19T06:14:22.834Z,-6.90
2018-12-19T06:16:51.910Z,-6.90
2018-12-19T06:19:21.136Z,-6.90
2018-12-19T06:21:50.230Z,-7.00
2018-12-19T06:24:19.307Z,-7.00
2018-12-19T06:26:48.453Z,-7.10
2018-12-19T06:29:17.545Z,-7.10
2018-12-19T06:31:46.608Z,-7.10
2018-12-19T06:34:15.660Z,-7.20
2018-12-19T06:36:44.722Z,-7.10
2018-12-19T06:39:13.882Z,-7.20
2018-12-19T06:41:42.931Z,-7.10
2018-12-19T06:44:12.015Z,-7.10
2018-12-19T06:46:41.081Z,-7.10
2018-12-19T06:49:10.153Z,-7.10
2018-12-19T06:51:39.381Z,-7.10
2018-12-19T06:54:08.421Z,-7.10
2018-12-19T06:56:37.497Z,-7.10
2018-12-19T06:59:06.539Z,-7.10
2018-12-19T07:01:35.693Z,-7.10
2018-12-19T07:04:04.830Z,-7.00
2018-12-19T07:06:33.979Z,-7.00
2018-12-19T07:09:03.655Z,-7.00
2018-12-19T07:11:32.702Z,-7.00
2018-12-19T07:14:01.865Z,-7.00
2018-12-19T07:16:30.931Z,-7.00
2018-12-19T07:19:00.142Z,-7.00
2018-12-19T07:21:29.206Z,-7.00
2018-12-19T07:23:58.433Z,-7.00
2018-12-19T07:26:27.522Z,-7.00
2018-12-19T07:28:56.605Z,-7.00
2018-12-19T07:31:25.656Z,-6.90
2018-12-19T07:33:54.717Z,-6.90
2018-12-19T07:36:23.821Z,-6.90
2018-12-19T07:38:52.939Z,-6.80
2018-12-19T07:41:22.026Z,-6.80
2018-12-19T07:43:51.068Z,-6.70
2018-12-19T07:46:20.148Z,-6.70
2018-12-19T07:48:49.394Z,-6.60
2018-12-19T07:51:19.109Z,-6.60
2018-12-19T07:53:48.213Z,-6.50
2018-12-19T07:56:17.345Z,-6.50
2018-12-19T07:58:46.405Z,-6.40
2018-12-19T08:01:15.498Z,-6.40
2018-12-19T08:03:44.572Z,-6.30
2018-12-19T08:06:13.613Z,-6.20
2018-12-19T08:08:42.686Z,-6.10
2018-12-19T08:11:11.760Z,-5.70
2018-12-19T08:13:40.854Z,-5.90
2018-12-19T08:16:09.897Z,-5.80
2018-12-19T08:18:38.974Z,-5.70
2018-12-19T08:21:08.008Z,-5.60
2018-12-19T08:23:37.089Z,-5.60
2018-12-19T08:26:06.148Z,-5.50
2018-12-19T08:28:35.168Z,-5.40
2018-12-19T08:31:05.566Z,-5.40
2018-12-19T08:36:12.996Z,-5.40
2018-12-19T08:38:42.040Z,-5.30
2018-12-19T08:41:11.107Z,-5.20
2018-12-19T08:43:40.187Z,-5.20
2018-12-19T08:46:14.513Z,-5.10
2018-12-19T08:48:40.283Z,-5.00
2018-12-19T08:51:09.324Z,-4.90
2018-12-19T08:53:38.474Z,-4.80
2018-12-19T08:56:07.520Z,-4.70
2018-12-19T08:58:36.588Z,-4.70
2018-12-19T09:01:05.746Z,-4.60
2018-12-19T09:03:37.202Z,-4.60
2018-12-19T09:06:06.445Z,-4.50
2018-12-19T09:08:35.525Z,-4.40
2018-12-19T09:11:05.835Z,-4.30
2018-12-19T09:13:35.291Z,-5.30
2018-12-19T09:16:04.423Z,-4.10
2018-12-19T09:18:33.488Z,-4.00
2018-12-19T09:21:02.526Z,-4.00
2018-12-19T09:23:32.105Z,-4.00
2018-12-19T09:26:01.204Z,-3.80
2018-12-19T09:28:30.281Z,-3.70
2018-12-19T09:30:59.499Z,-3.50
2018-12-19T09:33:28.591Z,-3.30
2018-12-19T09:35:57.706Z,-3.10
2018-12-19T09:38:26.802Z,-2.80
2018-12-19T09:40:55.853Z,-2.50
2018-12-19T09:43:24.925Z,-2.30
2018-12-19T09:45:53.996Z,-1.90
2018-12-19T09:48:23.046Z,-1.70
2018-12-19T09:50:52.168Z,-1.40
2018-12-19T09:53:21.625Z,-1.20
2018-12-19T09:55:50.697Z,-1.10
2018-12-19T09:58:19.746Z,-0.90
2018-12-19T10:00:48.785Z,-0.80
2018-12-19T10:03:17.855Z,-0.60
2018-12-19T10:05:46.908Z,-0.60
2018-12-19T10:08:16.064Z,-0.60
2018-12-19T10:10:45.100Z,-0.50
2018-12-19T10:13:14.154Z,-0.50
2018-12-19T10:15:43.235Z,-0.60
2018-12-19T10:18:12.329Z,-0.60
2018-12-19T10:20:41.402Z,-0.60
2018-12-19T10:23:10.433Z,-0.60
2018-12-19T10:25:39.506Z,-0.60
2018-12-19T10:28:08.651Z,-0.60
2018-12-19T10:30:39.730Z,-0.60
2018-12-19T10:33:08.807Z,-0.60
2018-12-19T10:35:37.865Z,-0.60
2018-12-19T10:38:06.907Z,-0.70
2018-12-19T10:40:36.666Z,-0.60
2018-12-19T10:43:05.687Z,-0.50
2018-12-19T10:45:34.753Z,-0.30
2018-12-19T10:48:03.811Z,-0.20
2018-12-19T10:50:32.885Z,-0.10
2018-12-19T10:53:01.934Z,0.00
2018-12-19T10:55:30.957Z,0.00
2018-12-19T10:58:00.035Z,0.20
2018-12-19T11:00:34.500Z,0.30
2018-12-19T11:03:03.553Z,0.50
2018-12-19T11:05:32.615Z,0.80
2018-12-19T11:08:01.646Z,1.00
2018-12-19T11:10:30.686Z,1.10
2018-12-19T11:12:59.735Z,1.10
2018-12-19T11:15:28.787Z,1.30
2018-12-19T11:17:57.853Z,1.40
2018-12-19T11:20:26.918Z,1.50
2018-12-19T11:22:56.197Z,1.80
2018-12-19T11:25:25.243Z,2.10
2018-12-19T11:27:54.312Z,2.30
2018-12-19T11:30:23.561Z,2.60
2018-12-19T11:32:52.583Z,2.70
2018-12-19T11:35:21.646Z,2.80
2018-12-19T11:37:50.692Z,2.80
2018-12-19T11:40:19.746Z,2.80
2018-12-19T11:42:48.845Z,2.60
2018-12-19T11:45:17.859Z,2.80
2018-12-19T11:47:46.928Z,2.80
2018-12-19T11:50:16.061Z,2.90
2018-12-19T11:52:45.098Z,2.90
2018-12-19T11:55:14.190Z,2.90
2018-12-19T11:57:43.242Z,2.80
2018-12-19T12:00:16.650Z,2.60
2018-12-19T12:02:45.738Z,2.60
2018-12-19T12:05:14.827Z,2.50
2018-12-19T12:07:44.229Z,2.40
2018-12-19T12:10:13.450Z,2.30
2018-12-19T12:12:42.530Z,2.20
2018-12-19T12:15:11.576Z,2.00
2018-12-19T12:17:40.675Z,1.80
2018-12-19T12:20:09.867Z,1.70
2018-12-19T12:22:38.973Z,1.60
2018-12-19T12:25:08.233Z,1.60
2018-12-19T12:27:37.286Z,1.60
2018-12-19T12:30:06.789Z,1.60
2018-12-19T12:32:35.813Z,1.50
2018-12-19T12:35:06.694Z,1.40
2018-12-19T12:37:36.614Z,1.30
2018-12-19T12:40:08.656Z,1.30
2018-12-19T12:42:37.905Z,1.40
2018-12-19T12:45:11.343Z,1.40
2018-12-19T12:47:40.700Z,1.50
2018-12-19T12:50:09.804Z,1.50
2018-12-19T12:52:39.004Z,1.60
2018-12-19T12:55:08.361Z,1.80
2018-12-19T12:57:37.477Z,2.10
2018-12-19T13:00:07.623Z,2.40
2018-12-19T13:02:36.782Z,2.50
2018-12-19T13:05:06.101Z,2.50
2018-12-19T13:07:35.149Z,2.40
2018-12-19T13:10:07.704Z,2.40
2018-12-19T13:12:36.835Z,2.50
2018-12-19T13:15:07.118Z,2.50
2018-12-19T13:17:36.169Z,2.50
2018-12-19T13:20:06.962Z,2.30
2018-12-19T13:22:36.065Z,2.20
2018-12-19T13:25:05.287Z,2.10
2018-12-19T13:27:34.356Z,2.00
2018-12-19T13:30:04.017Z,1.90
2018-12-19T13:32:38.337Z,1.90
2018-12-19T13:35:07.554Z,1.80
2018-12-19T13:37:36.625Z,1.70
2018-12-19T13:40:08.129Z,1.50
2018-12-19T13:42:37.253Z,1.40
2018-12-19T13:45:07.473Z,1.30
2018-12-19T13:47:36.744Z,1.30
2018-12-19T13:50:07.087Z,1.10
2018-12-19T13:52:36.127Z,1.00
2018-12-19T13:55:05.530Z,0.90
2018-12-19T13:57:34.555Z,0.80
2018-12-19T14:00:04.672Z,0.60
2018-12-19T14:02:33.725Z,0.50
2018-12-19T14:05:02.794Z,0.40
2018-12-19T14:07:31.825Z,0.30
2018-12-19T14:10:00.929Z,0.20
2018-12-19T14:12:30.043Z,0.00
2018-12-19T14:14:59.092Z,-0.10
2018-12-19T14:17:28.118Z,-0.20
2018-12-19T14:19:57.208Z,-0.30
2018-12-19T14:22:26.254Z,-0.40
2018-12-19T14:24:55.342Z,-0.50
2018-12-19T14:27:24.369Z,-0.60
2018-12-19T14:29:53.556Z,-0.70
2018-12-19T14:32:22.600Z,-0.80
2018-12-19T14:34:51.643Z,-0.90
2018-12-19T14:37:20.706Z,-1.00
2018-12-19T14:39:49.795Z,-1.10
2018-12-19T14:42:19.274Z,-1.20
2018-12-19T14:44:48.533Z,-1.20
2018-12-19T14:47:17.618Z,-1.30
2018-12-19T14:49:46.653Z,-1.40
2018-12-19T14:52:15.722Z,-1.50
2018-12-19T14:54:44.760Z,-1.60
2018-12-19T14:57:13.821Z,-1.70
2018-12-19T14:59:42.881Z,-1.80
2018-12-19T15:02:11.983Z,-1.80
2018-12-19T15:04:41.086Z,-1.80
2018-12-19T15:07:10.153Z,-1.90
2018-12-19T15:09:39.201Z,-1.90
2018-12-19T15:12:08.335Z,-2.00
2018-12-19T15:14:37.378Z,-2.10
2018-12-19T15:17:06.545Z,-2.10
2018-12-19T15:19:35.599Z,-2.20
2018-12-19T15:22:04.798Z,-2.20
2018-12-19T15:24:33.861Z,-2.30
2018-12-19T15:27:02.983Z,-2.30
2018-12-19T15:29:32.022Z,-2.40
2018-12-19T15:32:01.069Z,-2.40
2018-12-19T15:34:32.069Z,-2.50
2018-12-19T15:37:01.129Z,-2.60
2018-12-19T15:39:30.204Z,-2.60
2018-12-19T15:41:59.298Z,-2.60
2018-12-19T15:44:28.346Z,-2.70
2018-12-19T15:46:57.417Z,-2.70
2018-12-19T15:49:26.475Z,-2.80
2018-12-19T15:51:55.548Z,-2.80
2018-12-19T15:54:24.723Z,-2.90
2018-12-19T15:56:53.816Z,-2.90
2018-12-19T15:59:22.952Z,-1.80
2018-12-19T16:01:52.015Z,-3.00
2018-12-19T16:04:21.081Z,-3.00
2018-12-19T16:06:50.218Z,-3.10
2018-12-19T16:09:19.317Z,-3.10
2018-12-19T16:11:48.538Z,-3.10
2018-12-19T16:14:17.595Z,-3.20
2018-12-19T16:16:46.659Z,-3.20
2018-12-19T16:19:15.730Z,-3.30
2018-12-19T16:21:44.829Z,-3.40
2018-12-19T16:24:13.997Z,-3.40
2018-12-19T16:26:43.134Z,-3.50
2018-12-19T16:29:12.203Z,-3.50
2018-12-19T16:31:41.277Z,-3.50
2018-12-19T16:34:10.409Z,-3.50
2018-12-19T16:36:39.527Z,-3.60
2018-12-19T16:39:09.274Z,-3.60
2018-12-19T16:41:38.305Z,-3.70
2018-12-19T16:44:07.692Z,-3.70
2018-12-19T16:46:36.742Z,-3.70
2018-12-19T16:49:05.805Z,-3.80
2018-12-19T16:51:34.903Z,-3.80
2018-12-19T16:54:04.164Z,-3.80
2018-12-19T16:56:33.236Z,-3.80
2018-12-19T16:59:02.294Z,-3.90
2018-12-19T17:01:31.691Z,-3.80
2018-12-19T17:04:00.825Z,-3.90
2018-12-19T17:06:29.945Z,-3.90
2018-12-19T17:08:59.837Z,-3.90
2018-12-19T17:11:28.896Z,-4.00
2018-12-19T17:13:58.658Z,-4.00
2018-12-19T17:16:27.868Z,-4.10
2018-12-19T17:18:57.555Z,-4.10
2018-12-19T17:21:26.721Z,-4.20
2018-12-19T17:23:55.791Z,-4.20
2018-12-19T17:26:24.868Z,-4.20
2018-12-19T17:28:54.134Z,-4.30
2018-12-19T17:31:24.322Z,-4.30
2018-12-19T17:33:53.481Z,-4.30
2018-12-19T17:36:22.545Z,-4.40
2018-12-19T17:38:51.638Z,-4.40
2018-12-19T17:41:21.225Z,-4.40
2018-12-19T17:43:50.390Z,-4.40
2018-12-19T17:46:19.466Z,-4.40
2018-12-19T17:48:48.620Z,-4.40
2018-12-19T17:51:17.683Z,-4.50
2018-12-19T17:53:46.745Z,-4.60
2018-12-19T17:56:15.827Z,-4.50
2018-12-19T17:58:44.943Z,-4.60
2018-12-19T18:01:14.134Z,-4.60
2018-12-19T18:03:44.105Z,-4.70
2018-12-19T18:06:13.171Z,-4.70
2018-12-19T18:08:42.545Z,-4.70
2018-12-19T18:11:11.572Z,-4.70
2018-12-19T18:13:41.440Z,-4.80
2018-12-19T18:16:10.529Z,-4.80
2018-12-19T18:18:39.648Z,-4.70
2018-12-19T18:21:08.738Z,-4.80
2018-12-19T18:23:37.821Z,-4.80
2018-12-19T18:26:07.046Z,-4.80
2018-12-19T18:28:36.150Z,-4.80
2018-12-19T18:31:05.241Z,-4.70
2018-12-19T18:33:34.372Z,-4.70
2018-12-19T18:36:03.426Z,-4.70
2018-12-19T18:38:32.498Z,-4.70
2018-12-19T18:41:01.545Z,-4.70
2018-12-19T18:43:30.649Z,-4.70
2018-12-19T18:45:59.800Z,-4.70
2018-12-19T18:48:29.020Z,-4.70
2018-12-19T18:50:58.089Z,-4.70
2018-12-19T18:53:27.196Z,-4.70
2018-12-19T18:55:56.252Z,-4.70
2018-12-19T18:58:25.371Z,-4.70
2018-12-19T19:00:54.817Z,-4.70
2018-12-19T19:03:23.878Z,-4.80
2018-12-19T19:05:53.300Z,-4.80
2018-12-19T19:08:22.413Z,-4.80
2018-12-19T19:10:51.460Z,-4.80
2018-12-19T19:13:20.502Z,-4.80
2018-12-19T19:15:49.788Z,-4.80
2018-12-19T19:18:18.829Z,-4.80
2018-12-19T19:20:48.062Z,-4.80
2018-12-19T19:23:17.121Z,-4.90
2018-12-19T19:25:46.213Z,-5.00
2018-12-19T19:28:15.545Z,-5.00
2018-12-19T19:30:44.613Z,-5.10
2018-12-19T19:33:13.784Z,-5.10
2018-12-19T19:35:42.830Z,-5.10
2018-12-19T19:38:11.878Z,-5.10
2018-12-19T19:40:41.002Z,-5.10
2018-12-19T19:43:10.197Z,-5.10
2018-12-19T19:45:39.313Z,-3.90
2018-12-19T19:48:08.421Z,-5.10
2018-12-19T19:50:37.475Z,-5.10
2018-12-19T19:53:06.574Z,-5.00
2018-12-19T19:55:35.633Z,-5.00
2018-12-19T19:58:04.709Z,-5.00
2018-12-19T20:00:33.747Z,-5.00
2018-12-19T20:03:02.816Z,-5.00
2018-12-19T20:05:31.872Z,-5.00
2018-12-19T20:08:00.947Z,-5.00
2018-12-19T20:10:30.041Z,-5.00
2018-12-19T20:12:59.098Z,-5.00
2018-12-19T20:15:28.168Z,-5.00
2018-12-19T20:17:57.374Z,-5.00
2018-12-19T20:20:26.456Z,-5.00
2018-12-19T20:22:55.505Z,-5.00
2018-12-19T20:25:24.704Z,-5.00
2018-12-19T20:27:53.775Z,-5.10
2018-12-19T20:30:22.865Z,-5.10
2018-12-19T20:32:51.968Z,-5.10
2018-12-19T20:35:21.105Z,-5.20
2018-12-19T20:37:50.183Z,-5.20
2018-12-19T20:40:19.225Z,-5.20
2018-12-19T20:42:48.346Z,-5.20
2018-12-19T20:45:17.429Z,-5.10
2018-12-19T20:47:46.490Z,-5.10
2018-12-19T20:50:15.616Z,-5.10
2018-12-19T20:52:44.734Z,-5.10
2018-12-19T20:55:13.777Z,-5.10
2018-12-19T20:57:42.842Z,-5.00
2018-12-19T21:00:11.982Z,-5.00
2018-12-19T21:02:41.304Z,-5.00
2018-12-19T21:05:10.389Z,-5.00
2018-12-19T21:07:39.601Z,-5.00
2018-12-19T21:10:09.097Z,-5.00
2018-12-19T21:12:38.242Z,-5.00
2018-12-19T21:15:08.048Z,-5.00
2018-12-19T21:17:42.519Z,-5.00
2018-12-19T21:20:11.724Z,-5.00
2018-12-19T21:22:40.761Z,-5.00
2018-12-19T21:25:09.895Z,-5.00
2018-12-19T21:27:38.932Z,-5.00
2018-12-19T21:30:09.258Z,-5.00
2018-12-19T21:32:38.302Z,-4.90
2018-12-19T21:35:07.462Z,-5.00
2018-12-19T21:37:36.538Z,-5.00
2018-12-19T21:40:05.810Z,-4.90
2018-12-19T21:42:34.951Z,-4.90
2018-12-19T21:45:04.316Z,-4.90
2018-12-19T21:47:33.497Z,-4.90
2018-12-19T21:50:02.585Z,-4.90
2018-12-19T21:52:31.730Z,-4.90
2018-12-19T21:55:01.006Z,-4.80
2018-12-19T21:57:30.244Z,-4.80
2018-12-19T21:59:59.456Z,-4.80
2018-12-19T22:02:28.673Z,-4.80
2018-12-19T22:04:57.858Z,-4.80
2018-12-19T22:07:26.952Z,-4.80
2018-12-19T22:09:56.104Z,-4.80
2018-12-19T22:12:25.190Z,-4.80
2018-12-19T22:14:54.310Z,-4.80
2018-12-19T22:17:29.036Z,-4.80
2018-12-19T22:19:59.299Z,-4.80
2018-12-19T22:22:28.413Z,-4.70
2018-12-19T22:24:57.582Z,-4.80
2018-12-19T22:27:26.603Z,-4.80
2018-12-19T22:29:56.473Z,-4.80
2018-12-19T22:32:25.655Z,-4.80
2018-12-19T22:34:54.794Z,-4.80
2018-12-19T22:37:23.885Z,-4.80
2018-12-19T22:39:52.963Z,-4.80
2018-12-19T22:42:22.044Z,-4.80
2018-12-19T22:44:51.208Z,-4.80
2018-12-19T22:47:21.699Z,-4.70
2018-12-19T22:49:50.965Z,-4.80
2018-12-19T22:52:20.103Z,-4.80
2018-12-19T22:54:49.248Z,-4.80
2018-12-19T22:57:18.455Z,-4.80
2018-12-19T22:59:47.543Z,-4.70
2018-12-19T23:02:21.982Z,-4.70
2018-12-19T23:04:51.138Z,-4.70
2018-12-19T23:07:20.352Z,-4.70
2018-12-19T23:09:49.461Z,-4.70
2018-12-19T23:12:18.691Z,-4.70
2018-12-19T23:14:47.806Z,-4.70
2018-12-19T23:17:22.548Z,-4.70
2018-12-19T23:19:52.162Z,-4.60
2018-12-19T23:22:21.347Z,-4.70
2018-12-19T23:24:50.522Z,-4.60
2018-12-19T23:27:19.706Z,-4.60
2018-12-19T23:29:48.782Z,-4.60
2018-12-19T23:32:19.894Z,-4.60
2018-12-19T23:34:49.026Z,-4.60
2018-12-19T23:37:18.143Z,-4.60
2018-12-19T23:39:47.722Z,-4.60
2018-12-19T23:42:16.856Z,-4.60
2018-12-19T23:44:46.051Z,-4.60
2018-12-19T23:47:15.199Z,-4.60
2018-12-19T23:49:44.256Z,-4.60
2018-12-19T23:52:13.407Z,-4.60
2018-12-19T23:54:42.555Z,-4.60
2018-12-19T23:57:11.674Z,-4.50
2018-12-19T23:59:40.781Z,-4.50
